Aviation Digital Data Service (ADDS)

Output produced by METARs form (2107 UTC 18 April 2014)
found at http://aviationweather.gov/adds/metars/
 
KDFW 182059Z 1821/1924 09006KT P6SM SCT050 
     FM190600 15006KT P6SM BKN250